createdAt,value
2022-11-06T00:00:44.545Z,51.63
2022-11-06T00:01:44.714Z,50.17
2022-11-06T00:02:44.692Z,50.79
2022-11-06T00:03:44.579Z,52.44
2022-11-06T00:04:44.615Z,50.60
2022-11-06T00:05:44.621Z,50.59
2022-11-06T00:06:44.527Z,51.76
2022-11-06T00:07:44.565Z,52.24
2022-11-06T00:08:44.537Z,51.29
2022-11-06T00:09:44.490Z,49.79
2022-11-06T00:10:44.554Z,48.32
2022-11-06T00:11:44.441Z,48.37
2022-11-06T00:12:44.471Z,48.66
2022-11-06T00:13:44.804Z,49.00
2022-11-06T00:14:44.464Z,49.53
2022-11-06T00:15:44.545Z,47.58
2022-11-06T00:16:44.509Z,48.35
2022-11-06T00:17:44.486Z,47.90
2022-11-06T00:18:44.527Z,49.20
2022-11-06T00:19:44.852Z,47.77
2022-11-06T00:20:44.504Z,48.09
2022-11-06T00:21:44.485Z,47.73
2022-11-06T00:22:44.427Z,48.49
2022-11-06T00:23:44.423Z,50.90
2022-11-06T00:24:44.503Z,48.36
2022-11-06T00:25:44.445Z,47.12
2022-11-06T00:26:45.844Z,48.84
2022-11-06T00:27:44.359Z,50.66
2022-11-06T00:28:44.330Z,47.81
2022-11-06T00:29:44.354Z,49.98
2022-11-06T00:30:44.324Z,49.94
2022-11-06T00:31:44.415Z,49.22
2022-11-06T00:32:44.481Z,48.71
2022-11-06T00:33:44.436Z,48.45
2022-11-06T00:34:44.437Z,48.13
2022-11-06T00:35:44.364Z,49.55
2022-11-06T00:36:44.366Z,48.18
2022-11-06T00:37:44.434Z,47.44
2022-11-06T00:38:44.437Z,50.91
2022-11-06T00:39:44.341Z,49.78
2022-11-06T00:40:44.388Z,48.77
2022-11-06T00:41:44.315Z,48.89
2022-11-06T00:42:44.324Z,47.77
2022-11-06T00:43:44.315Z,47.74
2022-11-06T00:44:44.329Z,48.32
2022-11-06T00:45:44.423Z,50.62
2022-11-06T00:46:44.287Z,47.68
2022-11-06T00:47:44.267Z,47.71
2022-11-06T00:48:44.194Z,48.54
2022-11-06T00:49:44.306Z,48.82
2022-11-06T00:50:44.183Z,49.81
2022-11-06T00:51:44.219Z,49.50
2022-11-06T00:52:44.184Z,46.66
2022-11-06T00:53:44.185Z,48.59
2022-11-06T00:54:44.167Z,47.65
2022-11-06T00:55:44.273Z,48.57
2022-11-06T00:56:44.274Z,50.11
2022-11-06T00:57:44.214Z,50.16
2022-11-06T00:58:44.269Z,53.88
2022-11-06T00:59:44.178Z,49.21
2022-11-06T01:00:44.140Z,49.26
2022-11-06T01:01:44.471Z,48.61
2022-11-06T01:02:44.280Z,48.96
2022-11-06T01:03:44.170Z,49.77
2022-11-06T01:04:44.170Z,48.73
2022-11-06T01:05:44.169Z,50.26
2022-11-06T01:06:44.197Z,49.00
2022-11-06T01:07:44.063Z,49.83
2022-11-06T01:08:44.047Z,48.51
2022-11-06T01:09:44.037Z,49.23
2022-11-06T01:10:45.041Z,48.89
2022-11-06T01:12:11.842Z,47.85
2022-11-06T01:12:46.095Z,49.49
2022-11-06T01:13:44.114Z,50.63
2022-11-06T01:14:44.134Z,51.06
2022-11-06T01:15:44.062Z,49.16
2022-11-06T01:16:44.099Z,49.44
2022-11-06T01:17:44.223Z,49.89
2022-11-06T01:18:44.139Z,47.86
2022-11-06T01:19:44.106Z,48.30
2022-11-06T01:20:44.038Z,51.04
2022-11-06T01:21:44.057Z,47.79
2022-11-06T01:22:44.076Z,47.44
2022-11-06T01:23:44.609Z,48.37
2022-11-06T01:24:44.166Z,48.24
2022-11-06T01:25:44.062Z,48.49
2022-11-06T01:27:04.865Z,48.33
2022-11-06T01:27:45.927Z,48.56
2022-11-06T01:28:44.141Z,51.26
2022-11-06T01:29:43.965Z,50.47
2022-11-06T01:30:43.931Z,49.12
2022-11-06T01:31:44.003Z,48.59
2022-11-06T01:32:43.905Z,50.82
2022-11-06T01:33:44.933Z,49.79
2022-11-06T01:34:43.864Z,48.77
2022-11-06T01:35:44.047Z,48.30
2022-11-06T01:36:43.964Z,47.79
2022-11-06T01:37:44.045Z,48.93
2022-11-06T01:38:43.925Z,49.82
2022-11-06T01:39:44.021Z,47.09
2022-11-06T01:40:43.914Z,48.17
2022-11-06T01:41:43.956Z,48.84
2022-11-06T01:42:43.893Z,48.58
2022-11-06T01:43:43.881Z,47.21
2022-11-06T01:44:43.943Z,47.21
2022-11-06T01:45:43.864Z,48.14
2022-11-06T01:46:43.974Z,48.25
2022-11-06T01:47:43.912Z,47.47
2022-11-06T01:48:43.905Z,47.92
2022-11-06T01:49:43.930Z,47.34
2022-11-06T01:50:44.871Z,48.00
2022-11-06T01:51:43.801Z,47.33
2022-11-06T01:52:43.819Z,50.28
2022-11-06T01:53:43.782Z,50.88
2022-11-06T01:54:43.740Z,48.46
2022-11-06T01:55:43.816Z,47.89
2022-11-06T01:56:43.750Z,48.20
2022-11-06T01:57:43.893Z,47.97
2022-11-06T01:58:43.821Z,48.56
2022-11-06T01:59:43.890Z,53.05
2022-11-06T02:00:43.813Z,49.62
2022-11-06T02:01:43.879Z,49.19
2022-11-06T02:02:44.866Z,50.47
2022-11-06T02:03:43.738Z,47.36
2022-11-06T02:04:43.815Z,48.41
2022-11-06T02:05:43.747Z,49.27
2022-11-06T02:06:43.761Z,48.06
2022-11-06T02:07:44.722Z,48.59
2022-11-06T02:08:43.739Z,49.30
2022-11-06T02:09:43.689Z,48.49
2022-11-06T02:10:43.715Z,49.28
2022-11-06T02:11:43.602Z,50.37
2022-11-06T02:12:43.638Z,50.28
2022-11-06T02:13:43.560Z,49.64
2022-11-06T02:14:43.578Z,50.30
2022-11-06T02:15:43.599Z,47.69
2022-11-06T02:16:43.566Z,49.64
2022-11-06T02:17:43.578Z,49.11
2022-11-06T02:18:43.556Z,49.76
2022-11-06T02:19:43.542Z,49.68
2022-11-06T02:20:43.568Z,48.49
2022-11-06T02:21:43.688Z,48.41
2022-11-06T02:22:43.927Z,48.29
2022-11-06T02:23:43.634Z,49.53
2022-11-06T02:24:43.619Z,48.33
2022-11-06T02:25:43.795Z,49.79
2022-11-06T02:26:43.778Z,48.79
2022-11-06T02:27:43.539Z,47.66
2022-11-06T02:28:43.585Z,49.52
2022-11-06T02:29:43.561Z,49.70
2022-11-06T02:30:43.563Z,49.70
2022-11-06T02:31:43.500Z,47.82
2022-11-06T02:32:43.541Z,47.91
2022-11-06T02:33:43.588Z,49.94
2022-11-06T02:34:43.531Z,50.34
2022-11-06T02:35:43.520Z,49.55
2022-11-06T02:36:43.433Z,49.74
2022-11-06T02:37:43.455Z,50.07
2022-11-06T02:38:43.399Z,50.39
2022-11-06T02:39:44.463Z,47.48
2022-11-06T02:40:43.476Z,47.23
2022-11-06T02:41:43.481Z,48.20
2022-11-06T02:42:43.500Z,49.06
2022-11-06T02:43:43.442Z,50.25
2022-11-06T02:44:43.773Z,48.51
2022-11-06T02:45:43.460Z,47.80
2022-11-06T02:46:43.463Z,47.25
2022-11-06T02:47:43.445Z,47.21
2022-11-06T02:48:43.524Z,47.19
2022-11-06T02:49:43.448Z,48.04
2022-11-06T02:50:43.484Z,49.94
2022-11-06T02:51:43.466Z,49.57
2022-11-06T02:52:43.360Z,48.66
2022-11-06T02:53:44.083Z,48.11
2022-11-06T02:54:43.302Z,47.80
2022-11-06T02:55:44.324Z,47.78
2022-11-06T02:56:43.294Z,49.66
2022-11-06T02:57:43.339Z,50.06
2022-11-06T02:58:47.871Z,48.71
2022-11-06T02:59:45.261Z,48.85
2022-11-06T03:00:43.296Z,49.02
2022-11-06T03:01:43.430Z,49.63
2022-11-06T03:02:43.421Z,49.39
2022-11-06T03:03:43.318Z,48.00
2022-11-06T03:04:43.323Z,48.37
2022-11-06T03:05:43.402Z,49.57
2022-11-06T03:06:43.283Z,48.91
2022-11-06T03:07:43.337Z,48.34
2022-11-06T03:08:43.280Z,48.07
2022-11-06T03:09:43.298Z,48.38
2022-11-06T03:10:43.280Z,48.35
2022-11-06T03:11:43.278Z,49.14
2022-11-06T03:12:43.210Z,48.53
2022-11-06T03:13:43.157Z,49.67
2022-11-06T03:14:43.172Z,50.21
2022-11-06T03:15:43.219Z,49.81
2022-11-06T03:16:43.302Z,48.11
2022-11-06T03:17:43.205Z,48.87
2022-11-06T03:18:43.233Z,49.65
2022-11-06T03:19:43.170Z,48.63
2022-11-06T03:20:43.200Z,49.30
2022-11-06T03:21:44.179Z,48.98
2022-11-06T03:22:43.178Z,47.72
2022-11-06T03:23:43.233Z,47.73
2022-11-06T03:24:43.146Z,48.71
2022-11-06T03:25:43.179Z,51.49
2022-11-06T03:26:43.169Z,49.22
2022-11-06T03:27:43.350Z,48.71
2022-11-06T03:28:43.219Z,50.42
2022-11-06T03:29:43.148Z,48.40
2022-11-06T03:30:43.136Z,48.45
2022-11-06T03:31:43.097Z,47.67
2022-11-06T03:32:43.046Z,48.48
2022-11-06T03:33:43.029Z,49.68
2022-11-06T03:34:42.998Z,51.06
2022-11-06T03:35:43.087Z,50.31
2022-11-06T03:36:43.159Z,49.25
2022-11-06T03:38:04.143Z,49.39
2022-11-06T03:38:43.005Z,49.52
2022-11-06T03:39:43.080Z,48.56
2022-11-06T03:40:43.629Z,48.11
2022-11-06T03:41:43.044Z,49.02
2022-11-06T03:42:43.044Z,49.10
2022-11-06T03:43:43.098Z,48.83
2022-11-06T03:44:43.000Z,51.38
2022-11-06T03:45:43.001Z,51.72
2022-11-06T03:46:43.045Z,52.22
2022-11-06T03:47:43.016Z,50.98
2022-11-06T03:48:42.997Z,50.26
2022-11-06T03:49:42.904Z,49.65
2022-11-06T03:50:42.917Z,48.33
2022-11-06T03:51:42.881Z,47.89
2022-11-06T03:52:43.390Z,46.97
2022-11-06T03:53:44.102Z,47.11
2022-11-06T03:54:42.863Z,48.57
2022-11-06T03:55:42.977Z,47.65
2022-11-06T03:56:43.001Z,50.49
2022-11-06T03:57:42.955Z,50.71
2022-11-06T03:58:42.951Z,50.40
2022-11-06T03:59:44.005Z,48.43
2022-11-06T04:00:42.923Z,48.55
2022-11-06T04:01:43.013Z,47.82
2022-11-06T04:02:43.133Z,48.70
2022-11-06T04:03:42.853Z,50.06
2022-11-06T04:04:42.925Z,49.30
2022-11-06T04:05:42.888Z,49.69
2022-11-06T04:06:42.883Z,48.34
2022-11-06T04:07:42.841Z,48.47
2022-11-06T04:08:42.761Z,48.29
2022-11-06T04:09:42.762Z,49.52
2022-11-06T04:10:42.805Z,49.39
2022-11-06T04:11:42.843Z,49.52
2022-11-06T04:12:42.731Z,50.90
2022-11-06T04:13:42.704Z,48.91
2022-11-06T04:14:42.701Z,49.43
2022-11-06T04:15:42.857Z,49.39
2022-11-06T04:16:42.846Z,48.71
2022-11-06T04:17:42.834Z,49.58
2022-11-06T04:18:42.800Z,48.34
2022-11-06T04:19:42.755Z,48.13
2022-11-06T04:20:42.791Z,48.82
2022-11-06T04:21:42.814Z,48.36
2022-11-06T04:22:43.607Z,50.52
2022-11-06T04:23:42.714Z,49.15
2022-11-06T04:24:42.744Z,49.86
2022-11-06T04:25:42.736Z,50.12
2022-11-06T04:26:42.761Z,50.76
2022-11-06T04:27:42.682Z,50.97
2022-11-06T04:28:42.733Z,48.62
2022-11-06T04:29:42.707Z,48.22
2022-11-06T04:30:42.685Z,49.30
2022-11-06T04:31:42.643Z,49.43
2022-11-06T04:32:42.639Z,48.80
2022-11-06T04:33:42.595Z,48.82
2022-11-06T04:34:42.612Z,49.01
2022-11-06T04:35:42.530Z,48.35
2022-11-06T04:36:42.566Z,50.54
2022-11-06T04:37:42.613Z,49.99
2022-11-06T04:38:42.559Z,49.82
2022-11-06T04:39:42.522Z,48.72
2022-11-06T04:40:42.522Z,49.41
2022-11-06T04:41:42.518Z,47.98
2022-11-06T04:42:42.565Z,49.34
2022-11-06T04:43:42.643Z,50.98
2022-11-06T04:44:43.114Z,50.89
2022-11-06T04:45:42.580Z,51.86
2022-11-06T04:46:42.539Z,50.46
2022-11-06T04:47:42.582Z,52.23
2022-11-06T04:48:42.640Z,49.22
2022-11-06T04:49:42.567Z,49.04
2022-11-06T04:50:42.557Z,49.06
2022-11-06T04:51:42.569Z,48.36
2022-11-06T04:52:42.611Z,48.23
2022-11-06T04:53:42.500Z,49.16
2022-11-06T04:55:01.455Z,49.48
2022-11-06T04:55:42.465Z,47.84
2022-11-06T04:56:46.055Z,52.76
2022-11-06T04:57:43.406Z,48.27
2022-11-06T04:58:42.459Z,47.30
2022-11-06T04:59:42.443Z,48.42
2022-11-06T05:00:42.469Z,48.60
2022-11-06T05:01:42.624Z,50.61
2022-11-06T05:02:42.565Z,49.16
2022-11-06T05:03:42.395Z,48.89
2022-11-06T05:04:42.535Z,50.55
2022-11-06T05:05:42.525Z,50.10
2022-11-06T05:06:42.460Z,49.46
2022-11-06T05:07:42.452Z,49.25
2022-11-06T05:08:42.400Z,49.07
2022-11-06T05:09:42.413Z,49.71
2022-11-06T05:10:42.449Z,49.98
2022-11-06T05:11:42.387Z,48.67
2022-11-06T05:12:42.413Z,49.10
2022-11-06T05:13:42.355Z,49.59
2022-11-06T05:14:42.376Z,50.39
2022-11-06T05:15:42.310Z,49.68
2022-11-06T05:16:42.303Z,48.20
2022-11-06T05:17:42.251Z,49.78
2022-11-06T05:18:42.436Z,48.92
2022-11-06T05:19:42.290Z,51.25
2022-11-06T05:20:42.241Z,51.71
2022-11-06T05:21:42.267Z,51.31
2022-11-06T05:22:42.265Z,49.56
2022-11-06T05:23:42.208Z,49.00
2022-11-06T05:24:42.328Z,48.77
2022-11-06T05:25:42.298Z,50.23
2022-11-06T05:26:42.341Z,50.36
2022-11-06T05:27:42.276Z,50.17
2022-11-06T05:28:43.130Z,48.76
2022-11-06T05:29:42.289Z,51.20
2022-11-06T05:30:42.265Z,51.95
2022-11-06T05:31:42.233Z,49.88
2022-11-06T05:32:43.317Z,49.17
2022-11-06T05:33:42.263Z,48.84
2022-11-06T05:34:42.270Z,49.60
2022-11-06T05:35:42.251Z,49.79
2022-11-06T05:36:42.218Z,48.97
2022-11-06T05:37:42.438Z,48.31
2022-11-06T05:38:42.120Z,49.51
2022-11-06T05:39:42.327Z,50.20
2022-11-06T05:40:43.079Z,51.20
2022-11-06T05:41:42.103Z,52.22
2022-11-06T05:42:42.143Z,48.53
2022-11-06T05:43:42.172Z,50.71
2022-11-06T05:44:42.080Z,52.36
2022-11-06T05:45:42.098Z,49.84
2022-11-06T05:46:48.717Z,51.47
2022-11-06T05:47:44.028Z,49.90
2022-11-06T05:48:42.087Z,48.29
2022-11-06T05:49:42.173Z,48.19
2022-11-06T05:50:42.061Z,49.54
2022-11-06T05:51:42.121Z,49.03
2022-11-06T05:52:42.114Z,48.60
2022-11-06T05:53:42.034Z,48.67
2022-11-06T05:54:43.335Z,48.55
2022-11-06T05:55:42.105Z,48.90
2022-11-06T05:56:42.586Z,47.66
2022-11-06T05:57:42.112Z,48.37
2022-11-06T05:58:42.093Z,49.05
2022-11-06T05:59:42.127Z,51.02
2022-11-06T06:00:41.951Z,48.74
2022-11-06T06:01:42.126Z,52.94
2022-11-06T06:02:42.179Z,49.25
2022-11-06T06:03:42.089Z,50.06
2022-11-06T06:04:41.941Z,48.44
2022-11-06T06:05:41.965Z,48.78
2022-11-06T06:06:41.926Z,51.30
2022-11-06T06:07:41.999Z,48.90
2022-11-06T06:08:41.917Z,49.86
2022-11-06T06:09:42.085Z,51.22
2022-11-06T06:10:42.055Z,50.49
2022-11-06T06:11:41.913Z,51.44
2022-11-06T06:12:42.001Z,50.36
2022-11-06T06:13:41.969Z,50.31
2022-11-06T06:14:42.648Z,51.04
2022-11-06T06:15:41.918Z,48.45
2022-11-06T06:16:41.976Z,49.24
2022-11-06T06:17:41.853Z,51.00
2022-11-06T06:18:41.947Z,50.29
2022-11-06T06:19:41.928Z,48.43
2022-11-06T06:20:41.956Z,49.98
2022-11-06T06:21:41.976Z,52.76
2022-11-06T06:22:41.966Z,48.83
2022-11-06T06:23:41.828Z,48.08
2022-11-06T06:24:41.955Z,51.57
2022-11-06T06:25:41.907Z,52.18
2022-11-06T06:26:41.799Z,51.62
2022-11-06T06:27:41.893Z,50.66
2022-11-06T06:28:41.904Z,52.26
2022-11-06T06:29:41.789Z,55.93
2022-11-06T06:30:41.900Z,56.43
2022-11-06T06:31:41.856Z,56.65
2022-11-06T06:32:41.824Z,58.67
2022-11-06T06:33:41.747Z,57.42
2022-11-06T06:34:41.731Z,57.69
2022-11-06T06:35:41.727Z,54.28
2022-11-06T06:36:41.877Z,52.62
2022-11-06T06:37:41.696Z,53.33
2022-11-06T06:38:42.015Z,49.99
2022-11-06T06:39:41.720Z,60.63
2022-11-06T06:40:41.782Z,57.53
2022-11-06T06:41:41.712Z,58.33
2022-11-06T06:42:41.767Z,57.07
2022-11-06T06:43:41.801Z,59.72
2022-11-06T06:44:41.684Z,56.21
2022-11-06T06:45:41.809Z,59.04
2022-11-06T06:46:41.753Z,59.49
2022-11-06T06:47:41.655Z,58.06
2022-11-06T06:48:41.708Z,60.51
2022-11-06T06:49:41.785Z,59.00
2022-11-06T06:50:41.645Z,57.09
2022-11-06T06:51:41.754Z,56.41
2022-11-06T06:52:41.691Z,54.04
2022-11-06T06:53:41.612Z,54.26
2022-11-06T06:54:41.736Z,53.70
2022-11-06T06:55:41.791Z,51.21
2022-11-06T06:56:41.575Z,50.38
2022-11-06T06:57:41.848Z,52.40
2022-11-06T06:58:41.663Z,50.52
2022-11-06T06:59:41.569Z,52.09
2022-11-06T07:00:41.655Z,55.96
2022-11-06T07:01:41.708Z,54.81
2022-11-06T07:02:41.545Z,53.71
2022-11-06T07:03:41.581Z,52.57
2022-11-06T07:04:41.545Z,52.86
2022-11-06T07:05:41.564Z,50.09
2022-11-06T07:06:41.525Z,51.48
2022-11-06T07:07:41.608Z,52.68
2022-11-06T07:08:41.498Z,50.81
2022-11-06T07:09:41.508Z,52.49
2022-11-06T07:10:41.504Z,52.46
2022-11-06T07:11:41.530Z,50.77
2022-11-06T07:12:41.547Z,51.10
2022-11-06T07:13:41.567Z,53.87
2022-11-06T07:14:41.468Z,55.79
2022-11-06T07:15:41.538Z,51.25
2022-11-06T07:16:41.596Z,50.70
2022-11-06T07:17:41.488Z,50.91
2022-11-06T07:18:41.605Z,51.82
2022-11-06T07:19:41.678Z,50.93
2022-11-06T07:20:41.384Z,50.35
2022-11-06T07:21:41.565Z,52.38
2022-11-06T07:22:41.450Z,53.06
2022-11-06T07:23:41.523Z,52.66
2022-11-06T07:24:41.520Z,52.49
2022-11-06T07:25:41.487Z,51.83
2022-11-06T07:26:41.386Z,52.11
2022-11-06T07:27:41.405Z,50.15
2022-11-06T07:28:41.453Z,52.98
2022-11-06T07:29:41.465Z,51.41
2022-11-06T07:30:41.424Z,49.76
2022-11-06T07:31:41.429Z,51.36
2022-11-06T07:32:41.380Z,51.75
2022-11-06T07:33:41.477Z,52.07
2022-11-06T07:34:41.407Z,52.85
2022-11-06T07:35:41.568Z,51.62
2022-11-06T07:36:41.489Z,52.72
2022-11-06T07:37:41.459Z,50.13
2022-11-06T07:38:41.605Z,51.53
2022-11-06T07:39:41.424Z,52.24
2022-11-06T07:40:41.359Z,51.56
2022-11-06T07:41:41.494Z,52.70
2022-11-06T07:42:43.627Z,51.28
2022-11-06T07:43:42.436Z,52.18
2022-11-06T07:44:41.262Z,50.74
2022-11-06T07:45:41.222Z,51.70
2022-11-06T07:46:41.321Z,52.92
2022-11-06T07:47:41.230Z,50.51
2022-11-06T07:48:41.229Z,51.76
2022-11-06T07:49:42.172Z,51.34
2022-11-06T07:50:41.190Z,52.98
2022-11-06T07:51:41.193Z,51.97
2022-11-06T07:52:41.274Z,51.90
2022-11-06T07:53:41.267Z,53.11
2022-11-06T07:54:41.437Z,53.31
2022-11-06T07:55:42.507Z,49.78
2022-11-06T07:56:42.717Z,51.81
2022-11-06T07:57:41.263Z,50.91
2022-11-06T07:58:41.220Z,51.18
2022-11-06T07:59:41.207Z,51.66
2022-11-06T08:00:41.220Z,53.02
2022-11-06T08:01:41.306Z,50.63
2022-11-06T08:02:41.296Z,50.35
2022-11-06T08:03:41.231Z,53.29
2022-11-06T08:04:41.277Z,54.05
2022-11-06T08:05:41.142Z,52.70
2022-11-06T08:06:41.145Z,52.93
2022-11-06T08:07:41.173Z,52.60
2022-11-06T08:08:42.110Z,52.36
2022-11-06T08:09:41.111Z,53.74
2022-11-06T08:10:41.137Z,52.27
2022-11-06T08:11:41.188Z,54.51
2022-11-06T08:12:41.127Z,51.64
2022-11-06T08:13:41.123Z,51.18
2022-11-06T08:14:42.084Z,52.66
2022-11-06T08:15:41.087Z,53.85
2022-11-06T08:16:41.105Z,52.58
2022-11-06T08:17:41.098Z,52.90
2022-11-06T08:18:41.090Z,53.70
2022-11-06T08:19:41.062Z,51.58
2022-11-06T08:20:41.048Z,51.55
2022-11-06T08:21:41.157Z,53.09
2022-11-06T08:22:41.081Z,53.17
2022-11-06T08:23:41.129Z,53.20
2022-11-06T08:24:40.942Z,52.58
2022-11-06T08:25:40.981Z,51.51
2022-11-06T08:26:40.972Z,55.10
2022-11-06T08:27:41.000Z,52.61
2022-11-06T08:28:41.004Z,53.53
2022-11-06T08:29:41.800Z,52.18
2022-11-06T08:30:41.899Z,51.50
2022-11-06T08:31:40.901Z,53.01
2022-11-06T08:32:40.980Z,52.51
2022-11-06T08:33:41.028Z,52.56
2022-11-06T08:34:40.960Z,50.05
2022-11-06T08:35:40.986Z,53.13
2022-11-06T08:36:42.294Z,54.07
2022-11-06T08:37:40.990Z,52.63
2022-11-06T08:38:41.052Z,51.45
2022-11-06T08:39:40.926Z,52.23
2022-11-06T08:40:40.937Z,53.59
2022-11-06T08:41:40.911Z,54.39
2022-11-06T08:42:41.012Z,54.32
2022-11-06T08:43:40.961Z,55.18
2022-11-06T08:44:41.042Z,55.55
2022-11-06T08:45:40.812Z,56.38
2022-11-06T08:46:40.830Z,55.27
2022-11-06T08:47:40.799Z,55.66
2022-11-06T08:48:40.867Z,55.09
2022-11-06T08:49:40.904Z,54.66
2022-11-06T08:50:40.837Z,56.10
2022-11-06T08:51:40.874Z,56.79
2022-11-06T08:52:40.842Z,54.48
2022-11-06T08:53:40.994Z,54.26
2022-11-06T08:54:42.041Z,54.41
2022-11-06T08:55:40.804Z,52.51
2022-11-06T08:56:40.821Z,52.44
2022-11-06T08:57:40.813Z,51.82
2022-11-06T08:58:40.792Z,53.23
2022-11-06T08:59:52.554Z,53.23
2022-11-06T09:00:41.866Z,53.93
2022-11-06T09:01:40.918Z,52.63
2022-11-06T09:02:40.775Z,51.66
2022-11-06T09:03:40.783Z,50.98
2022-11-06T09:04:41.618Z,52.52
2022-11-06T09:05:41.816Z,53.91
2022-11-06T09:06:40.694Z,53.15
2022-11-06T09:07:40.693Z,52.66
2022-11-06T09:08:40.734Z,52.22
2022-11-06T09:09:40.772Z,53.94
2022-11-06T09:10:40.731Z,54.45
2022-11-06T09:11:40.803Z,56.20
2022-11-06T09:12:40.750Z,55.49
2022-11-06T09:13:40.673Z,53.98
2022-11-06T09:14:40.774Z,54.77
2022-11-06T09:15:41.198Z,56.70
2022-11-06T09:16:40.709Z,56.91
2022-11-06T09:17:40.739Z,56.20
2022-11-06T09:18:40.670Z,55.10
2022-11-06T09:19:40.633Z,53.98
2022-11-06T09:20:40.701Z,54.80
2022-11-06T09:21:40.696Z,52.65
2022-11-06T09:22:40.579Z,53.65
2022-11-06T09:23:40.613Z,54.82
2022-11-06T09:25:02.128Z,53.80
2022-11-06T09:25:42.520Z,53.63
2022-11-06T09:26:40.719Z,54.41
2022-11-06T09:27:40.586Z,53.93
2022-11-06T09:28:41.538Z,53.27
2022-11-06T09:29:40.505Z,53.66
2022-11-06T09:30:40.456Z,55.31
2022-11-06T09:31:40.525Z,53.69
2022-11-06T09:32:40.554Z,53.96
2022-11-06T09:33:40.464Z,54.41
2022-11-06T09:34:40.446Z,54.20
2022-11-06T09:35:40.490Z,51.87
2022-11-06T09:36:40.513Z,51.99
2022-11-06T09:37:40.500Z,50.82
2022-11-06T09:38:40.540Z,53.06
2022-11-06T09:39:40.536Z,54.57
2022-11-06T09:40:40.501Z,54.71
2022-11-06T09:41:40.485Z,53.68
2022-11-06T09:42:40.521Z,52.27
2022-11-06T09:44:42.421Z,54.26
2022-11-06T09:45:40.471Z,54.50
2022-11-06T09:46:40.503Z,54.15
2022-11-06T09:47:40.435Z,57.59
2022-11-06T09:48:40.513Z,53.74
2022-11-06T09:49:40.426Z,54.64
2022-11-06T09:50:40.463Z,53.10
2022-11-06T09:51:40.490Z,54.40
2022-11-06T09:52:40.449Z,53.86
2022-11-06T09:53:40.404Z,52.67
2022-11-06T09:54:40.354Z,52.58
2022-11-06T09:55:40.373Z,53.00
2022-11-06T09:56:40.311Z,52.99
2022-11-06T09:57:40.307Z,52.58
2022-11-06T09:58:40.456Z,54.38
2022-11-06T09:59:40.502Z,53.04
2022-11-06T10:00:40.286Z,54.84
2022-11-06T10:01:40.489Z,53.64
2022-11-06T10:02:40.495Z,54.35
2022-11-06T10:03:40.368Z,53.74
2022-11-06T10:04:40.414Z,54.49
2022-11-06T10:05:40.323Z,54.29
2022-11-06T10:06:41.384Z,53.88
2022-11-06T10:07:40.302Z,52.60
2022-11-06T10:08:40.849Z,53.63
2022-11-06T10:09:40.373Z,54.26
2022-11-06T10:10:40.311Z,54.21
2022-11-06T10:11:40.294Z,54.57
2022-11-06T10:12:40.282Z,53.49
2022-11-06T10:13:40.282Z,53.96
2022-11-06T10:14:40.344Z,55.08
2022-11-06T10:15:40.422Z,55.97
2022-11-06T10:16:40.332Z,54.91
2022-11-06T10:17:40.233Z,55.78
2022-11-06T10:18:40.369Z,55.48
2022-11-06T10:19:40.500Z,55.39
2022-11-06T10:20:40.339Z,55.46
2022-11-06T10:21:40.144Z,55.13
2022-11-06T10:22:40.295Z,54.32
2022-11-06T10:23:40.102Z,53.84
2022-11-06T10:24:40.216Z,54.17
2022-11-06T10:25:40.227Z,55.25
2022-11-06T10:26:40.311Z,54.40
2022-11-06T10:27:40.425Z,55.86
2022-11-06T10:28:40.672Z,55.70
2022-11-06T10:29:40.246Z,56.40
2022-11-06T10:30:40.200Z,56.11
2022-11-06T10:31:40.257Z,55.61
2022-11-06T10:32:40.256Z,54.30
2022-11-06T10:33:40.203Z,53.85
2022-11-06T10:34:40.646Z,55.35
2022-11-06T10:35:40.654Z,55.34
2022-11-06T10:36:40.270Z,56.18
2022-11-06T10:37:40.236Z,55.73
2022-11-06T10:38:40.030Z,56.90
2022-11-06T10:39:40.074Z,54.69
2022-11-06T10:40:39.996Z,55.43
2022-11-06T10:41:40.094Z,56.28
2022-11-06T10:42:40.029Z,55.08
2022-11-06T10:43:40.256Z,55.94
2022-11-06T10:44:40.128Z,53.97
2022-11-06T10:45:40.056Z,55.19
2022-11-06T10:46:40.241Z,55.62
2022-11-06T10:47:40.081Z,55.74
2022-11-06T10:48:41.584Z,54.30
2022-11-06T10:49:41.370Z,54.94
2022-11-06T10:50:40.087Z,55.91
2022-11-06T10:51:40.077Z,54.57
2022-11-06T10:52:40.015Z,56.67
2022-11-06T10:53:40.608Z,57.81
2022-11-06T10:54:40.055Z,55.21
2022-11-06T10:55:39.957Z,54.96
2022-11-06T10:56:39.935Z,54.72
2022-11-06T10:57:40.104Z,54.54
2022-11-06T10:58:40.077Z,55.52
2022-11-06T10:59:39.917Z,55.51
2022-11-06T11:00:39.971Z,56.62
2022-11-06T11:01:40.001Z,56.37
2022-11-06T11:02:40.095Z,56.69
2022-11-06T11:03:39.925Z,55.71
2022-11-06T11:04:40.091Z,55.69
2022-11-06T11:05:40.072Z,54.86
2022-11-06T11:06:40.034Z,56.23
2022-11-06T11:07:39.994Z,55.93
2022-11-06T11:08:40.130Z,55.81
2022-11-06T11:09:39.938Z,55.69
2022-11-06T11:10:39.869Z,56.49
2022-11-06T11:11:40.885Z,56.14
2022-11-06T11:12:39.884Z,56.62
2022-11-06T11:13:39.986Z,55.59
2022-11-06T11:14:39.915Z,56.16
2022-11-06T11:15:40.079Z,55.50
2022-11-06T11:16:39.940Z,55.90
2022-11-06T11:17:39.816Z,56.22
2022-11-06T11:18:39.792Z,56.49
2022-11-06T11:19:40.315Z,56.21
2022-11-06T11:20:40.051Z,55.91
2022-11-06T11:21:39.695Z,55.49
2022-11-06T11:22:39.733Z,55.96
2022-11-06T11:23:39.744Z,55.60
2022-11-06T11:24:39.807Z,54.60
2022-11-06T11:25:39.658Z,55.77
2022-11-06T11:26:39.756Z,55.89
2022-11-06T11:27:39.793Z,54.89
2022-11-06T11:28:39.705Z,56.17
2022-11-06T11:29:39.809Z,55.15
2022-11-06T11:30:39.692Z,55.00
2022-11-06T11:31:39.694Z,55.06
2022-11-06T11:32:39.678Z,56.49
2022-11-06T11:33:39.700Z,56.68
2022-11-06T11:34:42.407Z,55.25
2022-11-06T11:35:41.709Z,55.77
2022-11-06T11:36:39.783Z,56.41
2022-11-06T11:37:39.913Z,54.90
2022-11-06T11:38:40.020Z,54.35
2022-11-06T11:39:39.718Z,53.11
2022-11-06T11:40:39.623Z,54.35
2022-11-06T11:41:39.767Z,54.58
2022-11-06T11:42:40.077Z,53.98
2022-11-06T11:43:39.718Z,55.15
2022-11-06T11:44:39.769Z,55.19
2022-11-06T11:45:40.498Z,52.68
2022-11-06T11:46:39.548Z,53.13
2022-11-06T11:47:39.650Z,53.92
2022-11-06T11:48:39.524Z,55.45
2022-11-06T11:49:40.055Z,54.78
2022-11-06T11:50:39.531Z,54.83
2022-11-06T11:51:39.626Z,54.30
2022-11-06T11:52:41.967Z,54.20
2022-11-06T11:53:39.986Z,56.15
2022-11-06T11:54:39.549Z,56.06
2022-11-06T11:55:39.582Z,55.72
2022-11-06T11:57:41.524Z,54.27
2022-11-06T11:58:39.585Z,52.99
2022-11-06T11:59:39.510Z,54.62
2022-11-06T12:00:39.429Z,55.02
2022-11-06T12:01:39.519Z,53.73
2022-11-06T12:02:39.608Z,54.03
2022-11-06T12:03:39.499Z,53.40
2022-11-06T12:04:39.521Z,55.22
2022-11-06T12:05:39.514Z,55.36
2022-11-06T12:06:39.610Z,55.10
2022-11-06T12:07:44.944Z,55.51
2022-11-06T12:08:41.387Z,55.60
2022-11-06T12:09:39.572Z,55.45
2022-11-06T12:10:39.376Z,54.75
2022-11-06T12:11:39.545Z,52.90
2022-11-06T12:12:39.439Z,54.06
2022-11-06T12:13:39.415Z,55.18
2022-11-06T12:14:39.413Z,55.97
2022-11-06T12:15:39.499Z,55.31
2022-11-06T12:16:39.403Z,54.48
2022-11-06T12:17:39.393Z,53.96
2022-11-06T12:18:39.382Z,53.52
2022-11-06T12:19:39.511Z,53.07
2022-11-06T12:20:39.488Z,52.12
2022-11-06T12:21:39.383Z,53.09
2022-11-06T12:22:39.374Z,53.27
2022-11-06T12:23:39.511Z,52.54
2022-11-06T12:24:39.321Z,52.72
2022-11-06T12:25:39.274Z,52.26
2022-11-06T12:26:40.545Z,52.63
2022-11-06T12:27:39.238Z,52.51
2022-11-06T12:28:39.253Z,53.87
2022-11-06T12:29:39.261Z,55.23
2022-11-06T12:30:39.228Z,53.70
2022-11-06T12:31:39.299Z,51.89
2022-11-06T12:32:39.336Z,54.26
2022-11-06T12:34:04.985Z,53.14
2022-11-06T12:34:41.251Z,53.04
2022-11-06T12:35:39.372Z,53.40
2022-11-06T12:36:39.612Z,52.71
2022-11-06T12:37:39.229Z,52.48
2022-11-06T12:38:39.224Z,54.29
2022-11-06T12:39:39.250Z,52.71
2022-11-06T12:40:39.255Z,53.40
2022-11-06T12:41:39.257Z,53.22
2022-11-06T12:42:39.370Z,54.32
2022-11-06T12:43:40.284Z,52.90
2022-11-06T12:44:39.124Z,53.89
2022-11-06T12:45:39.097Z,52.29
2022-11-06T12:46:39.178Z,52.93
2022-11-06T12:47:39.266Z,53.73
2022-11-06T12:48:39.246Z,52.69
2022-11-06T12:49:39.235Z,53.61
2022-11-06T12:50:39.202Z,54.31
2022-11-06T12:51:39.148Z,54.14
2022-11-06T12:52:39.163Z,53.87
2022-11-06T12:53:39.219Z,52.70
2022-11-06T12:54:39.148Z,51.77